»·PEaware :: N772WW KENV-KFAT

N772WW :: KENV-KFAT

FLIGHT INFORMATION

Flight Status: Arrived
Operator: Privately registered:
United States
More flights under this callsign
Pilot: Thomas S. (17015)
Aircraft: SOCATA TBM-900
(TBM9)
More flights by this aircraft type
Origin: KENV Wendover
United States
Destination: KFAT Fresno Yosemite Intl
United States
More flights between these airports :: More routes between these airports
Route: +ENV1 BVL FASTE ELY CNT KATTS Q164 CABAB FRA
File this flight plan on PilotEdge
Remarks: RMK / SIMBRIEF
Altitude:
(Current/Filed)
30,000ft
Speed:
(Current/Filed)
323kts
Departed: 19-Oct-20 11:53 AM
Arrived: 19-Oct-20 01:26 PM
Distance/Time
Traveled:
356nm/1:32
Distance/Time
To Go:
Arrived

Flight Plot

Page will automatically refresh every two minutes.

Flight plan parsing failed; only flown route is shown


Map Options




Map Legend


Flown Route
Filed Route
Departure Airport
Arrival Airport
Navaid (VOR, NDB)
Fix

Horizontal Profiles

Position Reports

Time Latitude Longitude Heading Altitude Ground
Speed
19-Oct-20 10:42 40.727523 -114.039031 0 4234ft 0kts
19-Oct-20 10:43 40.727523 -114.039031 271 4234ft 0kts
19-Oct-20 10:44 40.727523 -114.039031 271 4234ft 0kts
19-Oct-20 10:45 40.727523 -114.039032 271 4234ft 0kts
19-Oct-20 10:46 40.727523 -114.039033 271 4234ft 0kts
19-Oct-20 10:47 40.727523 -114.039031 271 4234ft 0kts
19-Oct-20 10:48 40.727523 -114.039031 271 4234ft 0kts
19-Oct-20 10:49 40.727523 -114.039031 271 4234ft 0kts
19-Oct-20 10:50 40.727523 -114.039031 271 4234ft 0kts
19-Oct-20 10:51 40.727523 -114.039031 271 4234ft 0kts
19-Oct-20 10:52 40.727523 -114.039031 271 4234ft 0kts
19-Oct-20 10:53 40.727523 -114.039031 271 4234ft 0kts
19-Oct-20 10:54 40.727523 -114.039031 271 4234ft 0kts
19-Oct-20 10:55 40.727523 -114.039031 271 4234ft 0kts
19-Oct-20 10:56 40.727523 -114.039031 271 4234ft 0kts
19-Oct-20 10:57 40.727523 -114.039031 271 4234ft 0kts
19-Oct-20 10:58 40.727523 -114.039031 271 4234ft 0kts
19-Oct-20 10:59 40.727523 -114.039031 271 4234ft 0kts
19-Oct-20 11:00 40.727523 -114.039031 271 4234ft 0kts
19-Oct-20 11:01 40.727523 -114.039031 271 4234ft 0kts
19-Oct-20 11:02 40.727523 -114.039031 271 4234ft 0kts
19-Oct-20 11:03 40.727523 -114.039031 271 4234ft 0kts
19-Oct-20 11:04 40.727523 -114.039031 271 4234ft 0kts
19-Oct-20 11:05 40.727523 -114.039031 271 4234ft 0kts
19-Oct-20 11:06 40.727523 -114.039031 271 4234ft 0kts
19-Oct-20 11:07 40.727523 -114.039031 271 4234ft 0kts
19-Oct-20 11:08 40.727523 -114.039031 271 4234ft 0kts
19-Oct-20 11:09 40.727523 -114.039031 271 4234ft 0kts
19-Oct-20 11:10 40.727523 -114.039031 271 4234ft 0kts
19-Oct-20 11:11 40.727523 -114.039031 271 4234ft 0kts
19-Oct-20 11:12 40.727523 -114.039031 271 4234ft 0kts
19-Oct-20 11:13 40.727523 -114.039031 271 4234ft 0kts
19-Oct-20 11:14 40.727523 -114.039031 271 4234ft 0kts
19-Oct-20 11:15 40.727523 -114.039031 271 4234ft 0kts
19-Oct-20 11:16 40.727523 -114.039031 271 4234ft 0kts
19-Oct-20 11:17 40.727523 -114.039031 271 4234ft 0kts
19-Oct-20 11:18 40.727523 -114.039031 271 4234ft 0kts
19-Oct-20 11:19 40.727523 -114.039031 271 4234ft 0kts
19-Oct-20 11:20 40.727523 -114.039031 271 4234ft 0kts
19-Oct-20 11:21 40.727523 -114.039031 271 4234ft 0kts
19-Oct-20 11:22 40.727523 -114.039031 271 4234ft 0kts
19-Oct-20 11:23 40.727523 -114.039031 271 4234ft 0kts
19-Oct-20 11:24 40.727523 -114.039031 271 4234ft 0kts
19-Oct-20 11:26 40.727523 -114.039031 271 4234ft 0kts
19-Oct-20 11:27 40.727523 -114.039031 271 4234ft 0kts
19-Oct-20 11:28 40.727523 -114.039031 271 4234ft 0kts
19-Oct-20 11:29 40.727523 -114.039031 271 4234ft 0kts
19-Oct-20 11:30 40.727523 -114.039031 271 4234ft 0kts
19-Oct-20 11:31 40.727523 -114.039031 271 4234ft 0kts
19-Oct-20 11:32 40.727523 -114.039031 271 4234ft 0kts
19-Oct-20 11:33 40.727523 -114.039031 271 4234ft 0kts
19-Oct-20 11:34 40.727523 -114.039031 271 4234ft 0kts
19-Oct-20 11:35 40.727523 -114.039031 271 4234ft 0kts
19-Oct-20 11:36 40.727523 -114.039031 271 4234ft 0kts
19-Oct-20 11:37 40.727523 -114.039031 271 4234ft 0kts
19-Oct-20 11:38 40.727523 -114.039031 271 4234ft 0kts
19-Oct-20 11:39 40.727523 -114.039031 271 4234ft 0kts
19-Oct-20 11:40 40.727523 -114.039031 271 4234ft 0kts
19-Oct-20 11:41 40.727523 -114.039031 271 4234ft 0kts
19-Oct-20 11:41 40.727523 -114.039031 271 4234ft 0kts
19-Oct-20 11:43 40.727523 -114.039031 271 4234ft 0kts
19-Oct-20 11:43 40.727523 -114.039031 271 4234ft 0kts
19-Oct-20 11:45 40.727523 -114.039031 271 4234ft 0kts
19-Oct-20 11:45 40.727523 -114.039031 271 4234ft 0kts
19-Oct-20 11:46 40.727523 -114.039031 271 4234ft 0kts
19-Oct-20 11:47 40.727523 -114.039032 271 4234ft 0kts
19-Oct-20 11:48 40.727523 -114.039032 271 4234ft 0kts
19-Oct-20 11:49 40.726716 -114.040308 309 4233ft 12kts
19-Oct-20 11:50 40.724745 -114.042911 176 4232ft 14kts
19-Oct-20 11:51 40.720920 -114.042896 205 4228ft 14kts
19-Oct-20 11:52 40.719495 -114.025083 83 4351ft 145kts
19-Oct-20 11:53 40.720785 -113.969500 85 6885ft 149kts
19-Oct-20 11:54 40.722360 -113.911569 86 8954ft 172kts
19-Oct-20 11:55 40.724280 -113.832511 88 9013ft 238kts
19-Oct-20 11:56 40.725010 -113.745308 109 10049ft 219kts
19-Oct-20 11:57 40.692593 -113.752873 293 12548ft 155kts
19-Oct-20 11:58 40.712664 -113.803593 296 14847ft 158kts
19-Oct-20 11:59 40.722432 -113.859125 272 16978ft 161kts
19-Oct-20 12:00 40.720804 -113.919287 271 19204ft 166kts
19-Oct-20 12:01 40.718746 -113.981029 271 21372ft 173kts
19-Oct-20 12:02 40.716542 -114.046226 271 23204ft 197kts
19-Oct-20 12:03 40.713584 -114.130615 270 23193ft 252kts
19-Oct-20 12:04 40.710150 -114.226884 270 23183ft 267kts
19-Oct-20 12:05 40.706530 -114.326292 270 23180ft 271kts
19-Oct-20 12:06 40.703313 -114.412512 271 25740ft 205kts
19-Oct-20 12:07 40.692584 -114.487850 240 27051ft 231kts
19-Oct-20 12:08 40.628602 -114.518551 197 28804ft 264kts
19-Oct-20 12:09 40.555659 -114.536570 199 30184ft 275kts
19-Oct-20 12:10 40.474060 -114.557149 198 30189ft 315kts
19-Oct-20 12:11 40.385487 -114.579422 197 30182ft 328kts
19-Oct-20 12:12 40.294993 -114.602126 197 30184ft 333kts
19-Oct-20 12:13 40.207461 -114.634158 220 30206ft 316kts
19-Oct-20 12:14 40.138609 -114.704792 222 30241ft 315kts
19-Oct-20 12:15 40.066911 -114.771703 221 30241ft 317kts
19-Oct-20 12:16 39.994772 -114.838653 221 30240ft 317kts
19-Oct-20 12:17 39.922397 -114.905634 220 30240ft 320kts
19-Oct-20 12:18 39.849526 -114.972892 220 30236ft 321kts
19-Oct-20 12:19 39.776274 -115.040308 220 30241ft 322kts
19-Oct-20 12:20 39.703087 -115.107501 220 30246ft 322kts
19-Oct-20 12:21 39.629727 -115.174687 219 30258ft 322kts
19-Oct-20 12:22 39.556158 -115.241858 219 30274ft 323kts
19-Oct-20 12:23 39.482345 -115.309093 219 30282ft 324kts
19-Oct-20 12:24 39.408507 -115.376160 219 30282ft 324kts
19-Oct-20 12:25 39.334445 -115.443277 219 30283ft 326kts
19-Oct-20 12:26 39.259971 -115.510566 219 30284ft 327kts
19-Oct-20 12:27 39.185323 -115.577839 219 30277ft 329kts
19-Oct-20 12:28 39.110019 -115.645525 218 30277ft 329kts
19-Oct-20 12:29 39.034817 -115.712924 218 30288ft 330kts
19-Oct-20 12:30 38.959261 -115.780501 217 30271ft 331kts
19-Oct-20 12:31 38.883108 -115.848394 217 30262ft 333kts
19-Oct-20 12:32 38.807033 -115.916062 217 30256ft 333kts
19-Oct-20 12:33 38.730894 -115.983588 216 30256ft 333kts
19-Oct-20 12:34 38.654210 -116.051419 216 30254ft 335kts
19-Oct-20 12:35 38.577275 -116.119313 216 30259ft 336kts
19-Oct-20 12:36 38.500365 -116.186980 215 30265ft 335kts
19-Oct-20 12:37 38.423321 -116.254587 215 30265ft 335kts
19-Oct-20 12:38 38.346505 -116.321727 216 30257ft 335kts
19-Oct-20 12:39 38.296348 -116.419100 244 30255ft 331kts
19-Oct-20 12:40 38.252548 -116.522576 243 30261ft 331kts
19-Oct-20 12:41 38.208171 -116.626045 243 30247ft 333kts
19-Oct-20 12:42 38.163523 -116.729797 242 30248ft 332kts
19-Oct-20 12:43 38.118977 -116.833014 242 30242ft 332kts
19-Oct-20 12:44 38.074385 -116.935955 243 30249ft 332kts
19-Oct-20 12:45 38.029703 -117.038820 242 30253ft 333kts
19-Oct-20 12:46 37.984716 -117.142070 242 30258ft 334kts
19-Oct-20 12:47 37.939631 -117.244941 242 30260ft 334kts
19-Oct-20 12:48 37.894038 -117.348591 242 30251ft 335kts
19-Oct-20 12:49 37.848368 -117.452041 242 30248ft 336kts
19-Oct-20 12:50 37.802640 -117.555306 242 30232ft 336kts
19-Oct-20 12:51 37.755783 -117.660796 241 29331ft 356kts
19-Oct-20 12:52 37.706456 -117.771419 241 27823ft 359kts
19-Oct-20 12:53 37.657902 -117.879991 242 26312ft 351kts
19-Oct-20 12:54 37.610180 -117.986318 242 24804ft 345kts
19-Oct-20 12:55 37.564435 -118.087929 242 24222ft 316kts
19-Oct-20 12:56 37.522058 -118.181811 242 24226ft 302kts
19-Oct-20 12:57 37.480671 -118.273208 242 24227ft 299kts
19-Oct-20 12:58 37.438073 -118.367013 242 23344ft 315kts
19-Oct-20 12:59 37.394084 -118.463598 242 22344ft 319kts
19-Oct-20 13:00 37.349772 -118.560586 242 21114ft 319kts
19-Oct-20 13:01 37.305715 -118.656730 241 19880ft 312kts
19-Oct-20 13:02 37.269931 -118.754075 258 18854ft 303kts
19-Oct-20 13:03 37.250211 -118.856869 257 17859ft 302kts
19-Oct-20 13:04 37.230455 -118.958458 257 17139ft 289kts
19-Oct-20 13:05 37.211694 -119.054579 257 17104ft 278kts
19-Oct-20 13:06 37.192537 -119.152187 257 16001ft 298kts
19-Oct-20 13:07 37.172525 -119.253875 258 14516ft 304kts
19-Oct-20 13:08 37.152007 -119.357205 258 12671ft 301kts
19-Oct-20 13:09 37.132411 -119.455635 258 12036ft 273kts
19-Oct-20 13:10 37.114422 -119.545613 258 11998ft 265kts
19-Oct-20 13:11 37.056775 -119.589709 173 10825ft 302kts
19-Oct-20 13:12 36.973256 -119.574477 172 9325ft 294kts
19-Oct-20 13:13 36.894109 -119.560799 172 7807ft 282kts
19-Oct-20 13:14 36.816808 -119.547756 172 6294ft 278kts
19-Oct-20 13:15 36.749785 -119.553259 231 5984ft 231kts
19-Oct-20 13:16 36.713206 -119.612744 233 5995ft 206kts
19-Oct-20 13:17 36.683276 -119.671927 239 5990ft 201kts
19-Oct-20 13:18 36.639165 -119.653565 132 5997ft 194kts
19-Oct-20 13:20 36.604670 -119.605690 118 5988ft 179kts
19-Oct-20 13:21 36.633056 -119.571698 342 5689ft 189kts
19-Oct-20 13:22 36.679951 -119.589419 342 4069ft 157kts
19-Oct-20 13:23 36.715803 -119.611096 309 3046ft 162kts
19-Oct-20 13:24 36.743986 -119.659723 304 1425ft 161kts
19-Oct-20 13:25 36.762690 -119.692763 305 588ft 82kts
19-Oct-20 13:26 36.775262 -119.714879 302 333ft 39kts
19-Oct-20 13:27 36.776520 -119.720269 246 333ft 11kts
19-Oct-20 13:28 36.775122 -119.722773 304 332ft 15kts
19-Oct-20 13:29 36.777750 -119.727380 304 333ft 14kts
19-Oct-20 13:30 36.778745 -119.730430 304 331ft 0kts
19-Oct-20 13:31 36.778745 -119.730430 304 331ft 0kts
19-Oct-20 13:32 36.778745 -119.730430 304 331ft 0kts
19-Oct-20 13:33 36.778745 -119.730430 304 331ft 0kts

Navigation Log

Ident Type
Flight plan parsing failed, navigation log unavailable